• Join FlightAware (Why Join?)
  • Login
  • US Flag 
07:39AM EST


 

Airport Tracker/Info


-or-


 

Live Flight TrackerFlight Track Log ✈ N53NW ✈ 12-May-2013 ✈ KSGJ - KMSN

Flight Track Log - Related Links

Times and Time Zones

All times are in EDT time to prevent confusion due to time zone crossing. See the N53NW flight status page for this flight to view local times or setup timezone preferences in your user account.

Time Position Orientation Groundspeed Altitude Reporting Facility
EDT Latitude Longitude Course Direction KTS MPH feet Rate Location/Type
07:19PM 30.7581 -81.7153 336° Northwest 287 330 27,000  Level Jacksonville Center
07:20PM 30.8336 -81.7531 337° Northwest 292 336 28,400 1,380 Climbing Jacksonville Center
07:21PM 30.9153 -81.7933 337° Northwest 297 342 29,800 1,260 Climbing Jacksonville Center
07:22PM 30.9928 -81.8311 337° Northwest 297 342 31,000 600 Climbing Jacksonville Center
07:23PM 31.0789 -81.8739 337° Northwest 311 358 31,000  Level Jacksonville Center
07:24PM 31.3618 -82.0608 336° Northwest  Level Estimated
07:24PM 31.1711 -81.9189 337° Northwest 350 403 31,000  Level Jacksonville Center
07:25PM 31.2653 -81.9642 338° Northwest 356 410 31,400 900 Climbing Jacksonville Center
07:26PM 31.3533 -82.0094 336° Northwest 350 403 32,800 780 Climbing Jacksonville Center
07:27PM 31.4392 -82.0550 336° Northwest 340 391 33,000 60 Climbing Jacksonville Center
07:28PM 31.5356 -82.0981 339° North 352 405 33,000  Level Jacksonville Center
07:29PM 31.6297 -82.1411 339° North 366 421 33,000  Level Jacksonville Center
07:30PM 31.7364 -82.1647 349° North 385 443 33,000 780 Level Jacksonville Center
07:32PM 31.9622 -82.1833 356° North 405 466 35,500 1,080 Climbing Atlanta Center
07:33PM 32.0708 -82.1858 359° North 393 452 36,500 960 Climbing Atlanta Center
07:34PM 32.1711 -82.2011 353° North 379 436 37,500 960 Climbing Atlanta Center
07:35PM 32.2617 -82.2556 333° Northwest 346 398 38,500 960 Climbing Atlanta Center
07:36PM 32.3417 -82.3031 333° Northwest 331 381 39,500 720 Climbing Atlanta Center
07:37PM 32.4217 -82.3558 331° Northwest 326 375 40,000 240 Climbing Atlanta Center
07:38PM 32.5081 -82.4083 333° Northwest 334 384 40,000  Level Atlanta Center
07:39PM 32.5900 -82.4586 333° Northwest 334 384 40,000  Level Atlanta Center
07:40PM 32.6658 -82.5067 332° Northwest 339 390 40,000  Level Atlanta Center
07:41PM 32.7481 -82.5594 332° Northwest 339 390 40,000  Level Atlanta Center
07:42PM 32.8342 -82.6125 333° Northwest 339 390 40,000  Level Atlanta Center
07:43PM 32.9161 -82.6681 330° Northwest 339 390 40,000  Level Atlanta Center
07:44PM 33.0003 -82.7186 333° Northwest 339 390 40,000  Level Atlanta Center
07:45PM 33.0842 -82.7744 331° Northwest 339 390 40,000  Level Atlanta Center
07:46PM 33.1683 -82.8253 333° Northwest 339 390 40,000  Level Atlanta Center
07:47PM 33.2522 -82.8789 332° Northwest 339 390 40,000  Level Atlanta Center
07:48PM 33.3447 -82.9372 332° Northwest 334 384 40,000  Level Atlanta Center
07:49PM 33.4181 -82.9836 332° Northwest 328 377 40,000  Level Atlanta Center
07:50PM 33.5022 -83.0347 333° Northwest 333 383 40,000  Level Atlanta Center
07:51PM 33.5839 -83.0889 331° Northwest 327 376 40,000  Level Atlanta Center
07:52PM 33.6658 -83.1403 332° Northwest 332 382 40,000  Level Atlanta Center
07:53PM 33.7475 -83.1944 331° Northwest 332 382 40,000  Level Atlanta Center
07:54PM 33.8314 -83.2461 333° Northwest 332 382 40,000  Level Atlanta Center
07:55PM 33.9153 -83.3003 332° Northwest 332 382 40,000  Level Atlanta Center
07:56PM 34.0031 -83.3497 335° Northwest 332 382 40,000  Level Atlanta Center
07:57PM 34.0931 -83.3992 336° Northwest 349 402 40,000  Level Atlanta Center
07:58PM 34.1936 -83.4511 337° Northwest 349 402 40,000  Level Atlanta Center
07:59PM 34.2856 -83.4958 338° Northwest 354 407 40,000  Level Atlanta Center
08:00PM 34.3733 -83.5431 336° Northwest 348 400 40,000  Level Atlanta Center
08:01PM 34.4633 -83.5903 337° Northwest 348 400 40,000  Level Atlanta Center
08:02PM 34.5533 -83.6353 338° Northwest 343 395 40,000  Level Atlanta Center
08:03PM 34.6431 -83.6828 336° Northwest 343 395 40,000  Level Atlanta Center
08:04PM 34.7308 -83.7278 337° Northwest 343 395 40,000  Level Atlanta Center
08:05PM 34.8186 -83.7731 337° Northwest 342 394 40,000  Level Atlanta Center
08:06PM 34.9086 -83.8208 336° Northwest 342 394 40,000  Level Atlanta Center
08:07PM 34.9858 -83.8664 334° Northwest 337 388 40,000  Level Atlanta Center
08:08PM 35.0778 -83.9144 337° Northwest 343 395 40,000  Level Atlanta Center
08:09PM 35.1694 -83.9625 337° Northwest 348 400 40,000  Level Atlanta Center
08:10PM 35.2614 -84.0108 337° Northwest 353 406 40,000  Level Atlanta Center
08:11PM 35.3511 -84.0592 336° Northwest 358 412 40,000  Level Atlanta Center
08:12PM 35.4450 -84.1075 337° Northwest 358 412 40,000  Level Atlanta Center
08:13PM 35.5347 -84.1561 336° Northwest 358 412 40,000  Level Atlanta Center
08:14PM 35.6283 -84.2047 337° Northwest 358 412 40,000  Level Atlanta Center
08:15PM 35.7203 -84.2536 337° Northwest 358 412 40,000  Level Atlanta Center
08:16PM 35.8139 -84.3050 336° Northwest 358 412 40,000  Level Atlanta Center
08:18PM 36.0372 -84.4247 337° Northwest 365 420 40,000  Level Indianapolis Center
08:19PM 36.1294 -84.4744 336° Northwest 365 420 40,000  Level Indianapolis Center
08:20PM 36.2208 -84.5242 336° Northwest 362 417 40,000  Level Indianapolis Center
08:21PM 36.3119 -84.5744 336° Northwest 359 413 40,000  Level Indianapolis Center
08:22PM 36.4036 -84.6236 337° Northwest 360 414 40,000  Level Indianapolis Center
08:23PM 36.5150 -84.6850 336° Northwest 364 419 40,000  Level Indianapolis Center
08:24PM 36.6061 -84.7353 336° Northwest 361 415 40,000  Level Indianapolis Center
08:25PM 36.6994 -84.7864 336° Northwest 366 421 40,000  Level Indianapolis Center
08:26PM 36.7925 -84.8375 336° Northwest 366 421 40,000  Level Indianapolis Center
08:27PM 36.8861 -84.8914 335° Northwest 368 423 40,000  Level Indianapolis Center
08:28PM 36.9800 -84.9417 337° Northwest 367 422 40,000  Level Indianapolis Center
08:30PM 37.0797 -84.9967 336° Northwest 371 427 40,000  Level Indianapolis Center
08:31PM 37.1736 -85.0503 336° Northwest 371 427 40,000  Level Indianapolis Center
08:32PM 37.2697 -85.1039 336° Northwest 375 432 40,000  Level Indianapolis Center
08:33PM 37.3794 -85.1650 336° Northwest 368 423 40,000  Level Indianapolis Center
08:34PM 37.4722 -85.2181 336° Northwest 365 420 40,000  Level Indianapolis Center
08:35PM 37.5653 -85.2697 336° Northwest 363 418 40,000  Level Indianapolis Center
08:36PM 37.6567 -85.3231 335° Northwest 361 415 40,000  Level Indianapolis Center
08:37PM 37.7506 -85.3753 336° Northwest 365 420 40,000  Level Indianapolis Center
08:38PM 37.8503 -85.4311 336° Northwest 370 426 40,000  Level Indianapolis Center
08:39PM 37.9439 -85.4839 336° Northwest 369 425 40,000  Level Indianapolis Center
08:40PM 38.0367 -85.5372 336° Northwest 367 422 40,000  Level Indianapolis Center
08:41PM 38.1278 -85.5936 334° Northwest 365 420 40,000  Level Indianapolis Center
08:42PM 38.2119 -85.6575 329° Northwest 354 407 40,000  Level Indianapolis Center
08:43PM 38.2978 -85.7233 329° Northwest 358 412 40,000  Level Indianapolis Center
08:44PM 38.3847 -85.7875 330° Northwest 361 415 40,000  Level Indianapolis Center
08:45PM 38.4875 -85.8672 329° Northwest 360 414 40,000  Level Indianapolis Center
08:46PM 38.5725 -85.9325 329° Northwest 357 411 40,000  Level Indianapolis Center
08:47PM 38.6578 -85.9978 329° Northwest 357 411 40,000  Level Indianapolis Center
08:48PM 38.7442 -86.0628 330° Northwest 360 414 40,000  Level Indianapolis Center
08:49PM 38.8292 -86.1281 329° Northwest 357 411 40,000  Level Indianapolis Center
08:50PM 38.9225 -86.2000 329° Northwest 355 409 40,000  Level Indianapolis Center
08:51PM 39.0067 -86.2642 329° Northwest 353 406 40,000  Level Indianapolis Center
08:52PM 39.0906 -86.3308 328° Northwest 355 409 40,000  Level Indianapolis Center
08:53PM 39.1750 -86.3953 329° Northwest 353 406 40,000  Level Indianapolis Center
08:54PM 39.2586 -86.4611 329° Northwest 353 406 40,000  Level Indianapolis Center
08:55PM 39.3436 -86.5272 329° Northwest 354 407 40,000  Level Indianapolis Center
08:56PM 39.4275 -86.5928 329° Northwest 352 405 40,000  Level Indianapolis Center
08:57PM 39.5128 -86.6597 329° Northwest 355 409 40,000  Level Indianapolis Center
08:58PM 39.5969 -86.7256 329° Northwest 353 406 40,000  Level Indianapolis Center
08:59PM 39.6814 -86.7928 329° Northwest 354 407 40,000  Level Indianapolis Center
09:00PM 39.7825 -86.8736 328° Northwest 355 409 40,000  Level Indianapolis Center
09:01PM 39.8669 -86.9392 329° Northwest 354 407 40,000  Level Indianapolis Center
09:02PM 39.9500 -87.0067 328° Northwest 353 406 40,000  Level Indianapolis Center
09:03PM 40.0339 -87.0731 329° Northwest 353 406 40,000  Level Indianapolis Center
09:04PM 40.1183 -87.1400 329° Northwest 355 409 40,000  Level Indianapolis Center
09:05PM 40.1672 -87.1817 327° Northwest 354 407 40,000  Level Chicago Center
09:06PM 40.2511 -87.2492 328° Northwest 356 410 40,000  Level Chicago Center
09:07PM 40.3347 -87.3186 328° Northwest 356 410 40,000  Level Chicago Center
09:08PM 40.4353 -87.3978 329° Northwest 354 407 40,000  Level Chicago Center
09:09PM 40.5242 -87.4697 328° Northwest 356 410 40,000 -360 Level Chicago Center
09:10PM 40.6083 -87.5375 329° Northwest 357 411 39,300 -840 Descending Chicago Center
09:11PM 40.6900 -87.6050 328° Northwest 350 403 38,300 -1,020 Descending Chicago Center
09:12PM 40.7742 -87.6742 328° Northwest 356 410 37,300 -1,020 Descending Chicago Center
09:13PM 40.8589 -87.7442 328° Northwest 361 415 36,300 -1,020 Descending Chicago Center
09:14PM 40.9433 -87.8142 328° Northwest 358 412 35,300 -660 Descending Chicago Center
09:15PM 41.0406 -87.8939 328° Northwest 345 397 35,000 -180 Descending Chicago Center
09:16PM 41.1228 -87.9622 328° Northwest 349 402 35,000  Level Chicago Center
09:17PM 41.2056 -88.0314 328° Northwest 350 403 35,000 -300 Level Chicago Center
09:18PM 41.2878 -88.1000 328° Northwest 348 400 34,400 -900 Descending Chicago Center
09:19PM 41.3758 -88.1583 334° Northwest 345 397 33,200 -1,200 Descending Chicago Center
09:20PM 41.4653 -88.2161 334° Northwest 349 402 32,000 -600 Descending Chicago Center
09:21PM 41.5547 -88.2753 334° Northwest 355 409 32,000  Level Chicago Center
09:23PM 41.6433 -88.3328 334° Northwest 354 407 32,000 -780 Level Chicago Center
09:24PM 41.7469 -88.4003 334° Northwest 348 400 30,400 -1,800 Descending Chicago Center
09:25PM 41.8311 -88.4547 334° Northwest 341 392 28,400 -1,980 Descending Chicago Center
09:26PM 41.9136 -88.5094 334° Northwest 333 383 26,400 -1,920 Descending Chicago Center
09:27PM 41.9933 -88.5625 334° Northwest 323 372 24,500 -1,200 Descending Chicago Center
09:28PM 42.0686 -88.6128 334° Northwest 307 353 24,000 -300 Descending Chicago Center
09:29PM 42.1439 -88.6631 334° Northwest 304 350 24,000  Level Chicago Center
09:30PM 42.2364 -88.7222 335° Northwest 307 353 24,000 -660 Level Chicago Center
09:31PM 42.3122 -88.7744 333° Northwest 307 353 22,700 -1,320 Descending Chicago Center
09:32PM 42.3881 -88.8275 333° Northwest 297 342 21,300 -1,680 Descending Chicago Center
09:33PM 42.4617 -88.8758 334° Northwest 293 337 19,300 -1,860 Descending Chicago Center
09:34PM 42.5361 -88.9253 334° Northwest 294 338 17,500 -1,920 Descending Chicago Center
09:35PM 42.6056 -88.9722 334° Northwest 282 325 15,400 -1,740 Descending Chicago Center
09:36PM 42.6736 -89.0183 334° Northwest 275 316 14,000 -1,860 Descending Chicago Center
09:37PM 42.7336 -89.0589 334° Northwest 245 282 11,700 -1,500 Descending Chicago Center
09:38PM 42.7836 -89.0964 331° Northwest 211 243 11,000 -1,620 Descending Chicago Center
09:39PM 42.8158 -89.1736 300° West 204 235 8,500 -2,340 Descending Chicago Center
09:40PM 42.8489 -89.2453 302° West 219 252 6,300 -2,160 Descending Chicago Center
09:41PM 42.8936 -89.3025 317° Northwest 226 260 4,100 -1,620 Descending Chicago Center
09:42PM 42.9494 -89.3311 339° North 221 254 3,100 -540 Descending Chicago Center
09:43PM 42.9925 -89.3483 344° North 193 222 3,000 -120 Descending Chicago Center
09:44PM 43.0314 -89.3481 360° North 162 186 2,900 -420 Descending Chicago Center
09:45PM 43.0650 -89.3453 North 140 161 2,200 -660 Descending Chicago Center
09:46PM 43.0953 -89.3444 North 122 140 1,600 -540 Descending Chicago Center
09:47PM 43.1275 -89.3433 North 113 130 1,100 -540 Descending Chicago Center
09:49PM 43.1333 -89.3333 324° Northwest  Level FlightAware Approximate